Country
Station

 

Weather  for  Los Alamos  -  United States    United States

  
21 °C (70 °F)
    
 
 

Current METAR for Los Alamos is :

KLAM 191515Z AUTO 17011KT 10SM CLR 21/11 A3017 RMK AO2 T02130105

 

This is a report for Los Alamos - United States.
 
The report was made 25 minutes ago, at 15:15 UTC .
The wind was blowing at a speed of 5.7 meters per second (12.7 miles per hour) from south (170°).
 
The temperature was 21 °C (70 °F), with a dew-point at 11 °C (52 °F).
The atmospheric pressure was 1022 hPa (30.17 inHg).
The relative humidity was 52.8%.
 
The sky was clear.
 
The overall visibility was 16.1 kilometers (10.0 miles).
 

 
 
 
 

Country :   A   B   C   D   E   F   G   H   I   J   K   L   M   N   O   P   Q   R   S   T   U   V   W   Y   Z

 

Site Info  |  Disclaimer  |  Credits  |  Privacy
Contact us  |  Add to favorites
© 2013-2018 METARs - All rights reserved